Time;durP1;ratioP1;P1;durP2;ratioP2;P2;SDS_P1;SDS_P2;PMS_P1;PMS_P2;Temp;Humidity;BMP_temperature;BMP_pressure;BME280_temperature;BME280_humidity;BME280_pressure;Samples;Min_cycle;Max_cycle;Signal;HPM_P1;HPM_P2
2021/04/28 00:00:54;;;;;;;13.80;6.40;;;;;;;5.46;77.82;95178.94;5059108;28;20323;-69
2021/04/28 00:03:20;;;;;;;12.20;6.33;;;;;;;5.64;77.24;95170.84;5059420;28;20199;-69
2021/04/28 00:05:46;;;;;;;10.97;6.23;;;;;;;5.72;76.61;95168.19;5057852;28;20287;-69
2021/04/28 00:08:12;;;;;;;13.83;6.53;;;;;;;5.71;76.83;95174.38;5059126;28;20314;-69
2021/04/28 00:10:40;;;;;;;11.27;6.63;;;;;;;5.81;75.82;95169.78;5058318;28;20235;-69
2021/04/28 00:13:07;;;;;;;10.97;6.20;;;;;;;5.77;76.32;95171.94;5058773;28;20711;-69
2021/04/28 00:15:37;;;;;;;13.40;6.17;;;;;;;5.87;76.48;95174.28;5057858;28;20687;-70
2021/04/28 00:18:03;;;;;;;13.30;6.40;;;;;;;5.80;76.65;95168.16;5059066;28;20232;-69
2021/04/28 00:20:36;;;;;;;11.83;5.90;;;;;;;5.67;76.33;95167.88;5058392;28;20200;-69
2021/04/28 00:23:02;;;;;;;15.27;6.17;;;;;;;5.66;76.88;95161.03;5059532;28;20231;-69
2021/04/28 00:25:28;;;;;;;11.87;6.57;;;;;;;5.49;77.20;95169.97;5057464;28;20196;-69
2021/04/28 00:27:55;;;;;;;14.80;6.40;;;;;;;5.58;77.48;95164.50;5057883;28;20712;-69
2021/04/28 00:30:22;;;;;;;11.20;6.23;;;;;;;5.62;77.15;95164.97;5058607;28;20207;-69
2021/04/28 00:32:50;;;;;;;11.87;6.40;;;;;;;5.48;77.46;95157.88;5058872;28;20811;-69
2021/04/28 00:35:16;;;;;;;12.23;6.00;;;;;;;5.45;77.97;95163.44;5056916;28;20205;-69
2021/04/28 00:37:43;;;;;;;10.50;6.13;;;;;;;5.47;77.77;95158.84;5057976;28;20763;-69
2021/04/28 00:40:13;;;;;;;14.87;6.13;;;;;;;5.35;79.09;95152.41;5058542;28;20298;-68
2021/04/28 00:42:41;;;;;;;11.83;6.23;;;;;;;5.13;80.20;95160.16;5058379;28;20211;-69
2021/04/28 00:45:09;;;;;;;11.47;6.37;;;;;;;5.19;79.77;95151.66;5057057;28;20208;-68
2021/04/28 00:47:35;;;;;;;9.80;5.80;;;;;;;5.25;79.75;95151.00;5057874;28;20227;-69
2021/04/28 00:50:03;;;;;;;16.80;6.57;;;;;;;5.28;79.29;95143.59;5058369;28;20702;-69
2021/04/28 00:52:29;;;;;;;10.37;6.03;;;;;;;5.40;78.94;95152.69;5057811;28;20203;-69
2021/04/28 00:54:55;;;;;;;10.40;6.30;;;;;;;5.47;78.54;95153.63;5057958;28;20208;-69
2021/04/28 00:57:21;;;;;;;11.93;6.07;;;;;;;5.33;78.18;95158.78;5056951;28;20212;-69
2021/04/28 00:59:47;;;;;;;11.73;6.60;;;;;;;5.27;78.56;95155.06;5057793;28;20200;-69
2021/04/28 01:02:13;;;;;;;12.87;6.03;;;;;;;5.29;78.73;95152.28;5057927;28;20204;-69
2021/04/28 01:04:41;;;;;;;9.83;5.70;;;;;;;5.19;79.39;95147.25;5057990;28;20200;-69
2021/04/28 01:07:08;;;;;;;15.13;6.60;;;;;;;5.19;79.15;95147.25;5056634;28;20207;-70
2021/04/28 01:09:35;;;;;;;11.43;6.60;;;;;;;5.28;79.27;95145.41;5057729;28;20266;-69
2021/04/28 01:12:02;;;;;;;16.20;6.07;;;;;;;5.31;79.10;95150.28;5057827;28;21107;-69
2021/04/28 01:14:28;;;;;;;12.27;6.47;;;;;;;5.42;77.92;95155.13;5057408;28;20208;-69
2021/04/28 01:16:55;;;;;;;9.33;5.87;;;;;;;5.31;77.60;95155.50;5056582;28;20212;-69
2021/04/28 01:19:23;;;;;;;9.23;5.80;;;;;;;5.23;78.10;95153.78;5057414;28;20220;-70
2021/04/28 01:21:50;;;;;;;13.37;5.93;;;;;;;5.02;79.01;95161.38;5057548;28;20730;-69
2021/04/28 01:24:17;;;;;;;11.80;6.50;;;;;;;4.98;79.17;95157.47;5057486;28;20217;-69
2021/04/28 01:26:48;;;;;;;11.60;6.00;;;;;;;4.93;80.08;95146.72;5056735;28;20239;-69
2021/04/28 01:29:18;;;;;;;8.80;5.73;;;;;;;4.84;80.56;95158.16;5057036;28;20773;-69
2021/04/28 01:31:45;;;;;;;12.20;6.07;;;;;;;4.92;80.88;95150.31;5057333;28;20583;-70
2021/04/28 01:34:12;;;;;;;11.93;6.43;;;;;;;4.89;80.13;95155.88;5057249;28;20223;-69
2021/04/28 01:36:40;;;;;;;11.43;6.00;;;;;;;4.87;80.38;95157.84;5056537;28;20208;-70
2021/04/28 01:39:08;;;;;;;13.27;6.17;;;;;;;4.87;80.48;95157.03;5056928;28;20220;-69
2021/04/28 01:41:38;;;;;;;12.90;6.83;;;;;;;4.76;81.38;95161.78;5057197;28;20207;-69
2021/04/28 01:44:06;;;;;;;12.77;6.13;;;;;;;4.80;80.63;95160.47;5058362;28;20213;-69
2021/04/28 01:46:32;;;;;;;13.93;6.33;;;;;;;4.56;81.42;95147.53;5056093;28;20211;-69
2021/04/28 01:48:59;;;;;;;10.73;6.30;;;;;;;4.53;80.84;95158.25;5056417;28;20232;-70
2021/04/28 01:51:25;;;;;;;13.03;6.57;;;;;;;4.45;81.92;95160.91;5057277;28;20196;-69
2021/04/28 01:53:52;;;;;;;11.63;6.53;;;;;;;4.47;81.53;95158.94;5056662;28;20211;-69
2021/04/28 01:56:18;;;;;;;13.97;6.90;;;;;;;4.23;81.83;95156.38;5055633;28;20208;-70
2021/04/28 01:58:45;;;;;;;13.33;6.70;;;;;;;4.36;82.61;95159.28;5056803;28;20888;-69
2021/04/28 02:01:11;;;;;;;19.00;6.90;;;;;;;4.39;82.75;95157.16;5056939;28;20203;-69
2021/04/28 02:03:38;;;;;;;15.57;6.83;;;;;;;4.49;82.29;95156.97;5056592;28;20200;-69
2021/04/28 02:06:05;;;;;;;12.73;6.77;;;;;;;4.30;82.53;95152.13;5056696;28;20258;-69
2021/04/28 02:08:32;;;;;;;19.73;6.87;;;;;;;4.33;82.61;95159.63;5055851;28;20338;-69
2021/04/28 02:10:58;;;;;;;13.33;6.80;;;;;;;4.18;83.47;95153.44;5056489;28;20212;-69
2021/04/28 02:13:25;;;;;;;9.43;5.73;;;;;;;4.19;82.81;95149.03;5056838;28;20196;-69
2021/04/28 02:15:54;;;;;;;12.43;6.73;;;;;;;4.21;83.44;95147.09;5056298;28;20200;-69
2021/04/28 02:18:20;;;;;;;12.03;7.27;;;;;;;4.34;83.13;95143.81;5056322;28;20220;-69
2021/04/28 02:20:47;;;;;;;13.63;7.03;;;;;;;4.40;81.94;95142.31;5056384;28;20200;-70
2021/04/28 02:23:14;;;;;;;14.67;7.70;;;;;;;4.31;82.63;95136.31;5057091;28;20212;-69
2021/04/28 02:25:40;;;;;;;9.57;6.03;;;;;;;4.31;82.42;95138.09;5056120;28;20204;-68
2021/04/28 02:28:06;;;;;;;14.40;6.83;;;;;;;4.30;82.95;95146.91;5056804;28;20720;-69
2021/04/28 02:30:33;;;;;;;12.80;6.77;;;;;;;4.08;84.00;95142.38;5056248;28;20208;-69
2021/04/28 02:33:01;;;;;;;15.33;6.83;;;;;;;4.23;83.16;95138.94;5057267;28;20200;-69
2021/04/28 02:35:27;;;;;;;10.93;6.63;;;;;;;4.22;82.73;95138.28;5055417;28;20662;-69
2021/04/28 02:37:58;;;;;;;14.37;6.80;;;;;;;4.15;83.93;95134.69;5056600;28;20231;-69
2021/04/28 02:40:25;;;;;;;12.40;7.00;;;;;;;4.20;83.30;95135.84;5055949;28;20570;-68
2021/04/28 02:42:52;;;;;;;13.77;6.83;;;;;;;4.12;83.41;95135.03;5056705;28;20211;-69
2021/04/28 02:45:21;;;;;;;14.27;7.13;;;;;;;4.18;83.77;95137.81;5053896;28;20197;-69
2021/04/28 02:47:49;;;;;;;13.70;6.97;;;;;;;4.15;83.94;95129.50;5056731;28;20220;-69
2021/04/28 02:50:19;;;;;;;17.90;7.73;;;;;;;4.12;83.60;95122.81;5055246;28;20752;-70
2021/04/28 02:52:46;;;;;;;15.07;7.43;;;;;;;4.00;83.86;95129.34;5056845;28;20204;-69
2021/04/28 02:55:14;;;;;;;12.77;7.33;;;;;;;4.00;84.95;95124.13;5055862;28;20216;-69
2021/04/28 02:57:41;;;;;;;11.50;6.63;;;;;;;4.05;83.73;95132.28;5056069;28;20228;-69
2021/04/28 03:00:09;;;;;;;13.67;7.13;;;;;;;4.05;83.76;95131.44;5056223;28;20208;-69
2021/04/28 03:02:36;;;;;;;13.43;7.43;;;;;;;4.06;84.02;95128.72;5056731;28;20204;-69
2021/04/28 03:05:03;;;;;;;14.33;7.20;;;;;;;4.02;84.38;95134.41;5053149;28;20209;-70
2021/04/28 03:07:30;;;;;;;10.63;6.33;;;;;;;3.75;84.55;95135.53;5056112;28;20197;-69
2021/04/28 03:09:56;;;;;;;13.63;7.17;;;;;;;3.51;85.78;95134.72;5056464;28;20232;-69
2021/04/28 03:12:22;;;;;;;14.67;7.70;;;;;;;3.65;86.47;95131.47;5055920;28;20232;-69
2021/04/28 03:14:48;;;;;;;14.73;7.30;;;;;;;3.60;86.33;95132.94;5056318;28;20261;-69
2021/04/28 03:17:15;;;;;;;13.93;7.20;;;;;;;3.61;86.42;95122.34;5054965;28;20201;-69
2021/04/28 03:19:41;;;;;;;12.73;7.50;;;;;;;3.71;85.57;95134.22;5056683;28;20207;-69
2021/04/28 03:22:07;;;;;;;13.73;7.43;;;;;;;3.72;85.08;95122.84;5059485;28;20208;-69
2021/04/28 03:24:34;;;;;;;13.80;7.17;;;;;;;3.61;85.97;95126.75;5059823;28;20258;-69
2021/04/28 03:27:09;;;;;;;14.80;7.57;;;;;;;3.58;85.59;95132.28;5058571;28;20204;-69
2021/04/28 03:29:35;;;;;;;13.83;7.17;;;;;;;3.64;85.57;95122.84;5059119;28;20228;-69
2021/04/28 03:32:01;;;;;;;13.33;6.63;;;;;;;3.57;85.81;95123.66;5059438;28;20196;-69
2021/04/28 03:34:27;;;;;;;17.47;6.83;;;;;;;3.53;85.16;95129.38;5059829;28;20197;-69
2021/04/28 03:36:53;;;;;;;14.10;7.50;;;;;;;3.46;86.79;95133.56;5058492;28;20757;-69
2021/04/28 03:39:19;;;;;;;13.87;7.67;;;;;;;3.51;87.78;95128.69;5059364;28;20377;-69
2021/04/28 03:41:46;;;;;;;14.97;7.83;;;;;;;3.48;87.58;95136.84;5059528;28;20204;-69
2021/04/28 03:44:12;;;;;;;13.80;7.40;;;;;;;3.60;86.71;95132.94;5059757;28;20258;-69
2021/04/28 03:46:38;;;;;;;14.87;7.97;;;;;;;3.54;87.80;95138.78;5058203;28;20204;-69
2021/04/28 03:49:04;;;;;;;17.17;7.97;;;;;;;3.61;87.83;95131.97;5059339;28;20228;-69
2021/04/28 03:51:30;;;;;;;21.17;8.43;;;;;;;3.67;88.64;95132.13;5059306;28;20678;-69
2021/04/28 03:53:56;;;;;;;17.07;8.60;;;;;;;3.56;88.04;95129.03;5058980;28;20298;-68
2021/04/28 03:56:24;;;;;;;15.03;8.20;;;;;;;3.61;88.68;95127.56;5059411;28;20241;-68
2021/04/28 03:58:51;;;;;;;19.43;8.10;;;;;;;3.52;88.07;95125.13;5058625;28;20238;-69
2021/04/28 04:01:17;;;;;;;14.83;7.90;;;;;;;3.66;86.91;95126.09;5058713;28;21085;-69
2021/04/28 04:03:43;;;;;;;14.60;7.60;;;;;;;3.62;86.77;95126.59;5059727;28;20331;-70
2021/04/28 04:06:09;;;;;;;19.53;8.40;;;;;;;3.65;87.47;95129.69;5058432;28;20199;-69
2021/04/28 04:08:35;;;;;;;17.47;8.13;;;;;;;3.77;87.52;95125.78;5057929;28;20244;-69
2021/04/28 04:11:01;;;;;;;16.10;8.57;;;;;;;3.80;87.12;95130.66;5059418;28;20638;-69
2021/04/28 04:13:27;;;;;;;16.43;8.40;;;;;;;3.80;86.73;95129.84;5058848;28;20737;-69
2021/04/28 04:15:54;;;;;;;15.37;7.43;;;;;;;3.84;85.51;95137.16;5058084;28;20211;-69
2021/04/28 04:18:20;;;;;;;14.57;8.17;;;;;;;3.91;86.09;95134.75;5058632;28;20322;-69
2021/04/28 04:20:47;;;;;;;17.77;7.63;;;;;;;3.60;86.40;95133.75;5058810;28;20231;-69
2021/04/28 04:23:13;;;;;;;14.43;7.90;;;;;;;3.72;87.26;95130.66;5059003;28;20216;-69
2021/04/28 04:25:39;;;;;;;15.27;8.47;;;;;;;3.73;87.87;95137.50;5058203;28;20204;-69
2021/04/28 04:28:05;;;;;;;19.43;8.47;;;;;;;3.75;87.88;95135.53;5058752;28;20291;-69
2021/04/28 04:30:31;;;;;;;16.20;8.37;;;;;;;3.84;87.07;95137.16;5058284;28;20197;-69
2021/04/28 04:32:58;;;;;;;13.47;8.07;;;;;;;3.87;86.77;95139.47;5058216;28;20266;-69
2021/04/28 04:35:24;;;;;;;18.73;8.80;;;;;;;3.95;87.48;95126.41;5057870;28;20201;-69
2021/04/28 04:37:50;;;;;;;17.47;8.30;;;;;;;4.07;87.39;95134.72;5058002;28;20277;-69
2021/04/28 04:40:17;;;;;;;15.77;7.93;;;;;;;4.20;88.26;95127.22;5058011;28;20209;-69
2021/04/28 04:42:44;;;;;;;20.20;8.70;;;;;;;4.03;87.48;95133.44;5058048;28;20200;-69
2021/04/28 04:45:11;;;;;;;17.37;8.47;;;;;;;4.22;87.18;95132.06;5057804;28;20215;-69
2021/04/28 04:47:38;;;;;;;18.50;8.60;;;;;;;4.23;87.48;95135.53;5057274;28;20229;-69
2021/04/28 04:50:08;;;;;;;15.33;8.73;;;;;;;4.40;85.96;95130.13;5058132;28;20228;-69
2021/04/28 04:52:34;;;;;;;16.27;8.37;;;;;;;4.57;86.57;95139.53;5058017;28;20211;-68
2021/04/28 04:55:00;;;;;;;16.37;9.13;;;;;;;4.74;86.75;95138.47;5057847;28;20208;-69
2021/04/28 04:57:26;;;;;;;23.67;9.13;;;;;;;4.85;86.70;95138.94;5057744;28;20196;-68
2021/04/28 04:59:51;;;;;;;23.27;9.40;;;;;;;4.97;86.63;95141.97;5057476;28;20205;-69
2021/04/28 05:02:17;;;;;;;19.37;8.43;;;;;;;5.06;85.42;95131.31;5058447;28;20201;-68
2021/04/28 05:04:43;;;;;;;17.33;8.63;;;;;;;4.95;85.22;95139.56;5057817;28;20209;-69
2021/04/28 05:07:10;;;;;;;17.00;8.87;;;;;;;4.78;86.15;95131.13;5057014;28;20204;-69
2021/04/28 05:09:36;;;;;;;19.20;9.53;;;;;;;4.75;88.73;95131.44;5057855;28;20233;-69
2021/04/28 05:12:02;;;;;;;17.30;8.77;;;;;;;4.74;89.49;95137.69;5057794;28;20204;-69
2021/04/28 05:14:28;;;;;;;15.27;9.00;;;;;;;4.87;89.58;95129.16;5057646;28;20208;-69
2021/04/28 05:16:54;;;;;;;17.23;8.77;;;;;;;4.91;89.39;95134.81;5056628;28;20209;-69
2021/04/28 05:19:20;;;;;;;15.20;8.80;;;;;;;5.00;89.91;95126.81;5057837;28;20217;-69
2021/04/28 05:21:46;;;;;;;20.47;10.27;;;;;;;5.10;90.45;95135.22;5057254;28;20204;-69
2021/04/28 05:24:13;;;;;;;19.73;10.33;;;;;;;5.37;90.92;95129.53;5057449;28;20220;-69
2021/04/28 05:26:39;;;;;;;22.13;10.73;;;;;;;5.39;91.12;95131.97;5056194;28;20208;-69
2021/04/28 05:29:05;;;;;;;18.87;10.60;;;;;;;5.55;91.64;95132.69;5057832;28;20837;-70
2021/04/28 05:31:31;;;;;;;18.93;10.40;;;;;;;5.76;90.06;95130.28;5057469;28;20232;-69
2021/04/28 05:33:58;;;;;;;20.13;11.00;;;;;;;5.89;89.38;95135.75;5057912;28;20215;-69
2021/04/28 05:36:24;;;;;;;18.43;10.90;;;;;;;5.96;90.52;95142.72;5052953;28;20285;-69
2021/04/28 05:38:50;;;;;;;25.83;10.77;;;;;;;6.11;88.34;95144.38;5056947;28;20220;-69
2021/04/28 05:41:17;;;;;;;20.03;10.70;;;;;;;6.22;87.49;95151.81;5057521;28;20200;-69
2021/04/28 05:43:43;;;;;;;18.43;10.47;;;;;;;6.35;87.71;95144.16;5056853;28;20200;-69
2021/04/28 05:46:10;;;;;;;20.57;10.70;;;;;;;6.46;87.04;95146.34;5056531;28;20205;-68
2021/04/28 05:48:36;;;;;;;20.87;10.73;;;;;;;6.62;86.45;95151.41;5056730;28;20243;-70
2021/04/28 05:51:03;;;;;;;21.93;10.33;;;;;;;6.75;85.21;95154.22;5057403;28;20209;-69
2021/04/28 05:53:29;;;;;;;16.53;10.30;;;;;;;6.96;84.86;95160.38;5056916;28;20573;-69
2021/04/28 05:55:55;;;;;;;19.20;10.57;;;;;;;7.05;84.37;95159.28;5056548;28;20232;-69
2021/04/28 05:58:21;;;;;;;22.87;10.87;;;;;;;7.18;83.35;95154.22;5056916;28;20276;-69
2021/04/28 06:00:47;;;;;;;19.93;10.77;;;;;;;7.30;82.13;95147.50;5056573;28;20205;-69
2021/04/28 06:03:13;;;;;;;22.43;10.47;;;;;;;7.38;82.52;95142.97;5057170;28;20214;-69
2021/04/28 06:05:39;;;;;;;19.67;10.50;;;;;;;7.46;82.38;95148.09;5056296;28;20200;-69
2021/04/28 06:08:05;;;;;;;22.77;11.17;;;;;;;7.51;85.01;95144.91;5056554;28;20324;-69
2021/04/28 06:10:31;;;;;;;22.13;11.20;;;;;;;7.58;85.57;95146.63;5056749;28;20221;-69
2021/04/28 06:12:58;;;;;;;23.03;10.50;;;;;;;7.73;85.13;95136.91;5056695;28;20741;-69
2021/04/28 06:15:25;;;;;;;21.53;11.80;;;;;;;7.88;85.32;95142.91;5055566;28;20227;-69
2021/04/28 06:17:50;;;;;;;22.80;13.17;;;;;;;8.09;87.25;95129.78;5056468;28;20227;-68
2021/04/28 06:20:17;;;;;;;22.77;13.23;;;;;;;8.19;86.39;95136.38;5056712;28;20324;-68
2021/04/28 06:22:44;;;;;;;27.90;12.33;;;;;;;8.36;88.25;95127.22;5056189;28;20216;-68
2021/04/28 06:25:11;;;;;;;20.53;12.43;;;;;;;8.48;87.51;95126.50;5056445;28;20219;-68
2021/04/28 06:27:37;;;;;;;24.50;12.77;;;;;;;8.62;86.24;95127.44;5056341;28;20220;-69
2021/04/28 06:30:06;;;;;;;23.53;13.23;;;;;;;8.83;84.76;95136.03;5056651;28;20228;-69
2021/04/28 06:32:33;;;;;;;20.73;12.23;;;;;;;8.75;81.87;95136.19;5056355;28;21112;-69
2021/04/28 06:34:59;;;;;;;22.33;12.00;;;;;;;8.82;83.04;95129.19;5056858;28;20674;-69
2021/04/28 06:37:25;;;;;;;20.77;11.80;;;;;;;8.95;82.67;95125.78;5052977;28;20200;-69
2021/04/28 06:39:51;;;;;;;21.10;13.03;;;;;;;9.18;83.23;95129.78;5056407;28;20501;-69
2021/04/28 06:42:18;;;;;;;23.93;13.17;;;;;;;9.16;83.46;95131.78;5056975;28;20204;-69
2021/04/28 06:44:44;;;;;;;23.23;12.63;;;;;;;9.15;81.81;95133.59;5056740;28;20282;-68
2021/04/28 06:47:10;;;;;;;27.10;13.43;;;;;;;9.32;80.67;95136.72;5055534;28;20690;-68
2021/04/28 06:49:37;;;;;;;19.93;12.37;;;;;;;9.35;80.64;95138.94;5056173;28;20232;-69
2021/04/28 06:52:03;;;;;;;24.93;14.03;;;;;;;9.35;82.70;95128.44;5056070;28;20277;-69
2021/04/28 06:54:29;;;;;;;25.83;14.03;;;;;;;9.42;83.00;95132.72;5058321;28;20219;-67
2021/04/28 06:56:55;;;;;;;22.37;13.67;;;;;;;9.62;84.20;95132.78;5059679;28;20295;-69
2021/04/28 06:59:22;;;;;;;22.60;13.10;;;;;;;9.59;81.80;95138.44;5059794;28;20224;-69
2021/04/28 07:01:51;;;;;;;23.73;14.57;;;;;;;9.74;83.29;95142.53;5060644;28;20215;-69
2021/04/28 07:04:17;;;;;;;22.83;13.63;;;;;;;9.89;80.98;95132.63;5060159;28;20212;-69
2021/04/28 07:06:44;;;;;;;26.10;13.33;;;;;;;9.84;79.71;95143.78;5059683;28;20208;-68
2021/04/28 07:09:10;;;;;;;22.57;13.17;;;;;;;9.84;80.82;95132.44;5059487;28;20224;-71
2021/04/28 07:11:36;;;;;;;22.87;13.80;;;;;;;10.06;79.38;95137.38;5060225;28;20678;-71
2021/04/28 07:14:03;;;;;;;25.03;14.17;;;;;;;10.20;81.48;95136.38;5059860;28;20222;-67
2021/04/28 07:16:29;;;;;;;21.23;13.23;;;;;;;10.35;78.85;95129.91;5059657;28;20562;-71
2021/04/28 07:18:55;;;;;;;24.47;13.60;;;;;;;10.49;80.71;95131.53;5059278;28;20725;-71
2021/04/28 07:21:21;;;;;;;23.33;13.50;;;;;;;10.81;77.43;95122.00;5060072;28;20196;-67
2021/04/28 07:23:47;;;;;;;23.03;13.00;;;;;;;11.01;75.36;95124.38;5059909;28;20619;-68
2021/04/28 07:26:14;;;;;;;23.27;14.27;;;;;;;11.00;74.66;95124.59;5059046;28;20205;-67
2021/04/28 07:28:40;;;;;;;27.27;13.20;;;;;;;10.98;76.55;95130.06;5059302;28;20232;-70
2021/04/28 07:31:06;;;;;;;25.73;13.50;;;;;;;11.06;76.06;95111.38;5059941;28;20239;-68
2021/04/28 07:33:32;;;;;;;23.03;13.57;;;;;;;11.12;75.39;95118.44;5059255;28;20208;-70
2021/04/28 07:35:58;;;;;;;23.40;13.37;;;;;;;11.20;78.75;95112.13;5058613;28;20284;-68
2021/04/28 07:38:24;;;;;;;23.50;13.63;;;;;;;11.28;76.72;95123.28;5060012;28;21188;-67
2021/04/28 07:40:51;;;;;;;24.90;14.20;;;;;;;11.33;75.26;95118.19;5059321;28;20556;-69
2021/04/28 07:43:17;;;;;;;20.00;13.00;;;;;;;11.33;75.26;95117.38;5058768;28;20209;-71
2021/04/28 07:45:43;;;;;;;23.40;13.53;;;;;;;11.40;79.70;95126.88;5058948;28;20250;-71
2021/04/28 07:48:11;;;;;;;23.33;13.07;;;;;;;11.51;79.88;95126.28;5059458;28;20636;-71
2021/04/28 07:50:38;;;;;;;25.57;13.67;;;;;;;11.64;75.71;95136.78;5058529;28;20231;-69
2021/04/28 07:53:04;;;;;;;22.57;13.20;;;;;;;11.66;74.45;95134.75;5058754;28;20923;-68
2021/04/28 07:55:30;;;;;;;25.23;14.13;;;;;;;11.73;75.22;95138.94;5057075;28;20200;-70
2021/04/28 07:57:57;;;;;;;24.10;13.02;;;;;;;11.58;75.81;95133.16;5059806;28;20286;-70
2021/04/28 08:00:26;;;;;;;25.37;13.50;;;;;;;11.65;75.17;95133.91;5059287;28;20247;-67
2021/04/28 08:02:52;;;;;;;23.03;13.97;;;;;;;11.96;79.33;95126.03;5058898;28;20243;-68
2021/04/28 08:05:19;;;;;;;23.27;13.70;;;;;;;12.16;75.34;95131.22;5057533;28;20655;-70
2021/04/28 08:07:45;;;;;;;25.83;13.70;;;;;;;12.21;73.47;95140.91;5059153;28;20224;-71
2021/04/28 08:10:12;;;;;;;24.73;13.47;;;;;;;12.53;71.38;95144.34;5053449;28;20236;-71
2021/04/28 08:12:38;;;;;;;23.03;13.07;;;;;;;12.81;70.13;95135.75;5058985;28;20599;-70
2021/04/28 08:15:08;;;;;;;23.90;13.60;;;;;;;12.80;68.73;95141.28;5058587;28;20205;-70
2021/04/28 08:17:34;;;;;;;19.85;13.00;;;;;;;13.12;71.65;95145.47;5057913;28;20201;-70
2021/04/28 08:20:01;;;;;;;20.65;12.98;;;;;;;13.21;67.28;95138.88;5059105;28;20650;-68
2021/04/28 08:22:27;;;;;;;20.98;12.70;;;;;;;13.43;69.68;95133.75;5058022;28;20204;-67
2021/04/28 08:24:54;;;;;;;23.10;12.90;;;;;;;13.71;68.64;95143.78;5058832;28;20204;-68
2021/04/28 08:27:21;;;;;;;21.20;13.48;;;;;;;13.59;67.86;95137.63;5057874;28;20628;-71
2021/04/28 08:29:47;;;;;;;22.95;12.65;;;;;;;13.62;71.88;95138.00;5059058;28;20247;-70
2021/04/28 08:32:13;;;;;;;21.25;12.77;;;;;;;13.55;67.26;95131.97;5058216;28;20209;-68
2021/04/28 08:34:39;;;;;;;19.38;12.48;;;;;;;13.83;69.83;95137.53;5058390;28;20201;-68
2021/04/28 08:37:07;;;;;;;20.45;12.30;;;;;;;13.86;67.75;95139.75;5058024;28;20231;-72
2021/04/28 08:39:33;;;;;;;19.63;12.48;;;;;;;13.94;66.90;95130.66;5058443;28;20216;-71
2021/04/28 08:41:59;;;;;;;16.75;11.38;;;;;;;14.04;63.96;95142.38;5058373;28;20204;-71
2021/04/28 08:44:26;;;;;;;18.40;11.50;;;;;;;14.40;65.72;95137.00;5058597;28;20248;-70
2021/04/28 08:46:52;;;;;;;20.95;11.55;;;;;;;14.70;66.25;95133.22;5057352;28;20212;-67
2021/04/28 08:49:18;;;;;;;16.77;11.07;;;;;;;14.72;62.60;95133.81;5057747;28;20290;-69
2021/04/28 08:51:45;;;;;;;22.10;12.20;;;;;;;14.54;64.31;95141.06;5057114;28;21101;-71
2021/04/28 08:54:11;;;;;;;24.60;11.63;;;;;;;14.42;64.03;95129.59;5057503;28;20235;-68
2021/04/28 08:56:37;;;;;;;19.95;11.68;;;;;;;14.59;61.35;95134.03;5057323;28;20255;-71
2021/04/28 08:59:05;;;;;;;17.25;11.77;;;;;;;14.76;63.18;95125.16;5057154;28;20230;-70
2021/04/28 09:01:33;;;;;;;19.05;12.18;;;;;;;14.94;63.65;95124.28;5057639;28;20723;-66
2021/04/28 09:04:00;;;;;;;22.02;11.73;;;;;;;15.20;61.24;95124.63;5053690;28;20208;-71
2021/04/28 09:06:29;;;;;;;18.48;10.68;;;;;;;15.47;58.13;95115.16;5056420;28;20204;-70
2021/04/28 09:08:56;;;;;;;17.95;10.88;;;;;;;15.49;57.06;95113.06;5057547;28;20427;-71
2021/04/28 09:11:40;;;;;;;15.77;10.10;;;;;;;15.59;60.88;95108.78;5056598;28;20586;-69
2021/04/28 09:14:10;;;;;;;16.90;10.85;;;;;;;15.91;56.28;95105.47;5055658;28;20208;-69
2021/04/28 09:16:36;;;;;;;17.27;10.32;;;;;;;15.88;58.69;95116.56;5057060;28;20208;-68
2021/04/28 09:19:03;;;;;;;15.95;10.32;;;;;;;15.85;57.58;95109.03;5053897;28;20611;-68
2021/04/28 09:22:00;;;;;;;17.95;10.52;;;;;;;15.80;57.75;95110.81;5057530;28;20209;-68
2021/04/28 09:24:28;;;;;;;16.13;10.18;;;;;;;15.85;59.91;95113.56;5057470;28;20209;-66
2021/04/28 09:26:55;;;;;;;16.95;10.43;;;;;;;15.76;58.68;95114.97;5056568;28;20208;-69
2021/04/28 09:29:24;;;;;;;17.77;10.00;;;;;;;15.82;58.21;95116.69;5057357;28;20228;-69
2021/04/28 09:32:06;;;;;;;18.38;10.25;;;;;;;15.87;54.76;95109.63;5057729;28;20211;-69
2021/04/28 09:34:38;;;;;;;18.73;9.45;;;;;;;16.04;56.58;95107.03;5057444;28;21018;-67
2021/04/28 09:37:08;;;;;;;16.77;10.25;;;;;;;16.26;57.28;95106.13;5055691;28;20307;-67
2021/04/28 09:39:45;;;;;;;16.27;9.90;;;;;;;16.32;57.70;95099.88;5057000;28;20224;-69
2021/04/28 09:42:12;;;;;;;19.85;10.48;;;;;;;16.21;56.25;95103.34;5057590;28;20207;-67
2021/04/28 09:44:45;;;;;;;17.45;10.18;;;;;;;16.46;55.54;95098.53;5057115;28;20207;-68
2021/04/28 09:47:14;;;;;;;19.77;10.25;;;;;;;16.67;53.22;95097.81;5056534;28;20254;-68
2021/04/28 09:49:49;;;;;;;18.35;10.13;;;;;;;16.66;53.92;95096.19;5056687;28;20242;-68
2021/04/28 09:52:17;;;;;;;16.35;9.98;;;;;;;16.86;54.19;95093.88;5055961;28;20196;-68
2021/04/28 09:54:45;;;;;;;19.00;10.32;;;;;;;16.96;51.72;95091.38;5056986;28;20863;-69
2021/04/28 09:57:14;;;;;;;16.48;10.07;;;;;;;17.01;51.51;95091.44;5056231;28;20288;-69
2021/04/28 09:59:42;;;;;;;17.40;9.55;;;;;;;17.33;49.58;95083.41;5056825;28;20231;-69
2021/04/28 10:02:11;;;;;;;16.88;9.85;;;;;;;17.33;54.26;95082.63;5057355;28;20227;-69
2021/04/28 10:04:37;;;;;;;18.42;9.73;;;;;;;17.36;53.27;95076.78;5056989;28;20211;-69
2021/04/28 10:07:03;;;;;;;18.98;9.68;;;;;;;17.86;50.96;95078.25;5055728;28;20582;-68
2021/04/28 10:09:33;;;;;;;19.20;10.18;;;;;;;17.91;53.14;95087.09;5056267;28;20227;-69
2021/04/28 10:12:01;;;;;;;18.65;9.55;;;;;;;17.77;51.27;95079.75;5056954;28;20295;-69
2021/04/28 10:14:28;;;;;;;16.27;9.73;;;;;;;17.72;50.94;95083.13;5056934;28;20254;-67
2021/04/28 10:16:55;;;;;;;19.15;9.80;;;;;;;17.79;49.29;95077.63;5056465;28;20217;-66
2021/04/28 10:19:22;;;;;;;15.45;9.65;;;;;;;17.66;52.63;95072.66;5052734;28;20228;-68
2021/04/28 10:21:49;;;;;;;17.60;10.02;;;;;;;18.05;48.89;95071.50;5057323;28;20734;-68
2021/04/28 10:24:17;;;;;;;15.85;10.18;;;;;;;18.58;47.56;95078.50;5056265;28;20205;-66
2021/04/28 10:26:44;;;;;;;20.98;9.90;;;;;;;18.68;45.41;95072.44;5056469;28;20246;-68
2021/04/28 10:29:10;;;;;;;17.15;10.05;;;;;;;18.90;44.18;95065.13;5057975;28;20224;-68
2021/04/28 10:31:37;;;;;;;16.05;9.30;;;;;;;19.28;47.73;95063.03;5060773;28;20594;-68
2021/04/28 10:34:06;;;;;;;15.68;10.02;;;;;;;18.98;48.21;95068.16;5060828;28;20872;-67
2021/04/28 10:36:32;;;;;;;16.65;9.75;;;;;;;18.91;50.88;95064.88;5060703;28;20334;-68
2021/04/28 10:38:59;;;;;;;19.23;9.15;;;;;;;18.88;48.15;95062.72;5060061;28;21070;-67
2021/04/28 10:41:40;;;;;;;17.00;9.65;;;;;;;18.71;48.99;95053.25;5061076;28;20204;-68
2021/04/28 10:44:27;;;;;;;21.02;9.43;;;;;;;18.90;46.38;95059.78;5060332;28;20208;-68
2021/04/28 10:47:20;;;;;;;15.07;8.85;;;;;;;18.61;44.28;95061.97;5059421;28;20215;-66
2021/04/28 10:50:14;;;;;;;22.17;10.32;;;;;;;19.04;44.07;95061.75;5060011;28;20228;-67
2021/04/28 10:52:45;;;;;;;19.45;10.95;;;;;;;18.88;43.34;95056.59;5057256;28;20212;-66
2021/04/28 10:55:44;;;;;;;15.85;9.50;;;;;;;18.94;44.07;95065.19;5059360;28;20743;-69
2021/04/28 10:58:36;;;;;;;15.77;9.82;;;;;;;19.49;43.81;95056.72;5060247;28;20232;-67
2021/04/28 11:01:23;;;;;;;16.73;10.23;;;;;;;19.54;42.42;95062.91;5060723;28;20555;-67
2021/04/28 11:03:51;;;;;;;20.80;11.18;;;;;;;19.24;43.79;95056.59;5060022;28;20591;-67
2021/04/28 11:06:37;;;;;;;19.20;10.15;;;;;;;19.29;44.01;95056.63;5059874;28;20196;-68
2021/04/28 11:09:09;;;;;;;17.98;9.73;;;;;;;19.21;43.31;95063.25;5059827;28;20404;-67
2021/04/28 11:11:41;;;;;;;20.60;10.70;;;;;;;19.06;44.11;95065.03;5059499;28;21117;-68
2021/04/28 11:14:47;;;;;;;19.77;10.45;;;;;;;19.09;43.90;95056.47;5060441;28;20223;-68
2021/04/28 11:17:25;;;;;;;18.00;9.07;;;;;;;18.99;42.40;95056.38;5057438;28;20305;-67
2021/04/28 11:19:52;;;;;;;18.42;10.27;;;;;;;18.64;42.50;95060.66;5059348;28;20204;-68
2021/04/28 11:22:28;;;;;;;16.42;9.50;;;;;;;18.72;44.64;95058.31;5059857;28;20690;-66
2021/04/28 11:24:58;;;;;;;21.45;10.60;;;;;;;18.98;44.93;95057.47;5059662;28;20208;-67
2021/04/28 11:27:44;;;;;;;16.75;10.05;;;;;;;19.36;44.13;95052.66;5058356;28;20201;-66
2021/04/28 11:30:34;;;;;;;15.70;9.45;;;;;;;19.41;44.81;95057.22;5059574;28;20267;-68